Airfield :
LOGIN :

Register | Disclaimer

   EN    FR    IT 

 










Legend :    VFR   Marginal VFR   IFR   Intensive IFR   Very Intensive IFR
Visi :
Ceiling :
>= 8 km
>= 3000ft
5 to 8 km
1000 to 3000 ft
1500m to 5 km
500 to 1000 ft
800 to 1500m
200 to 500 ft
< 800m
< 200 ft
Symbols :   Thunderstorms  Fog  Heavy snow  Heavy precipitations  Wind > 20 kt
SIGMETs :     Misc.  Thunderstorms  Icing  Turbulence  Mountain Waves  Volcanic Ashes






- Airport Elevation : 362 ft
- IATA code : WAW


EPWA - Warsaw Okecie

CURRENT METAR :
  • 250500Z 25005KT 210V290 9999 SCT009 10/09 Q1022 TEMPO BKN009

EXPIRED METARs :
  • 250430Z 26004KT 220V290 9999 FEW010 10/09 Q1022 NOSIG
  • 250400Z 27003KT 220V310 9999 FEW005 10/09 Q1022 NOSIG
  • 250330Z 27003KT 220V310 9999 FEW005 09/08 Q1022 NOSIG
  • 250300Z 26003KT 210V290 CAVOK 09/08 Q1021 NOSIG
  • 250230Z 27003KT 240V310 CAVOK 09/08 Q1021 NOSIG

TAF TAF EPWA
Valid from the 25 at 03:00 until the 26 at 03:00 UTC


250230Z 2503/2603 28004KT CAVOK
TEMPO 2503/2603 -SHRA SCT025CB
PROB40 2503/2506 BKN007 BKN014
PROB40
TEMPO 2506/2509 4000 SHRA BKN014CB
PROB40
TEMPO 2509/2517 VRB15G30KT 2000 TSRA SCT008 BKN014CB



MET'MAP, your aeronautical weather chart ! - Copyright ORBIFLY December 2007 - Disclaimer

ORBIFLY MET'MAP TEAM :

Programming & Development : Alexandra Zaïnal
Concept & original design : Baudouin d'Aumeries
Assistance for programming : Marc-Olivier Méhu
Technical & hardware support : Manuel Goepfert

Contact : metmap@orbifly.com




SOURCES & CREDITS :

   NOAA